sensor_id;sensor_type;location;lat;lon;timestamp;P1;durP1;ratioP1;P2;durP2;ratioP2
74291;SDS011;62687;55.738;37.516;2022-11-23T00:00:26;8.75;;;3.65;;
74291;SDS011;62687;55.738;37.516;2022-11-23T00:03:13;7.38;;;3.63;;
74291;SDS011;62687;55.738;37.516;2022-11-23T00:06:00;6.82;;;3.38;;
74291;SDS011;62687;55.738;37.516;2022-11-23T00:08:45;7.82;;;3.20;;
74291;SDS011;62687;55.738;37.516;2022-11-23T00:11:29;6.75;;;3.05;;
74291;SDS011;62687;55.738;37.516;2022-11-23T00:14:16;6.43;;;3.10;;
74291;SDS011;62687;55.738;37.516;2022-11-23T00:17:00;7.07;;;2.80;;
74291;SDS011;62687;55.738;37.516;2022-11-23T00:19:44;5.93;;;2.80;;
74291;SDS011;62687;55.738;37.516;2022-11-23T00:22:28;6.50;;;2.60;;
74291;SDS011;62687;55.738;37.516;2022-11-23T00:25:12;5.45;;;2.67;;
74291;SDS011;62687;55.738;37.516;2022-11-23T00:27:56;6.18;;;2.70;;
74291;SDS011;62687;55.738;37.516;2022-11-23T00:30:40;6.97;;;2.75;;
74291;SDS011;62687;55.738;37.516;2022-11-23T00:33:24;6.20;;;2.67;;
74291;SDS011;62687;55.738;37.516;2022-11-23T00:36:12;5.50;;;2.53;;
74291;SDS011;62687;55.738;37.516;2022-11-23T00:38:57;6.50;;;2.83;;
74291;SDS011;62687;55.738;37.516;2022-11-23T00:41:41;4.78;;;2.53;;
74291;SDS011;62687;55.738;37.516;2022-11-23T00:44:25;6.13;;;2.22;;
74291;SDS011;62687;55.738;37.516;2022-11-23T00:47:09;4.95;;;2.40;;
74291;SDS011;62687;55.738;37.516;2022-11-23T00:49:53;7.38;;;2.17;;
74291;SDS011;62687;55.738;37.516;2022-11-23T00:52:37;4.90;;;2.38;;
74291;SDS011;62687;55.738;37.516;2022-11-23T00:55:21;6.40;;;2.38;;
74291;SDS011;62687;55.738;37.516;2022-11-23T00:58:05;7.50;;;2.50;;
74291;SDS011;62687;55.738;37.516;2022-11-23T01:00:49;5.70;;;2.05;;
74291;SDS011;62687;55.738;37.516;2022-11-23T01:03:33;4.50;;;2.17;;
74291;SDS011;62687;55.738;37.516;2022-11-23T01:06:28;7.70;;;2.50;;
74291;SDS011;62687;55.738;37.516;2022-11-23T01:09:20;6.63;;;2.70;;
74291;SDS011;62687;55.738;37.516;2022-11-23T01:12:09;8.55;;;2.53;;
74291;SDS011;62687;55.738;37.516;2022-11-23T01:14:53;5.63;;;2.50;;
74291;SDS011;62687;55.738;37.516;2022-11-23T01:17:37;6.80;;;2.45;;
74291;SDS011;62687;55.738;37.516;2022-11-23T01:20:21;8.23;;;2.75;;
74291;SDS011;62687;55.738;37.516;2022-11-23T01:23:05;5.50;;;2.08;;
74291;SDS011;62687;55.738;37.516;2022-11-23T01:25:49;9.00;;;3.03;;
74291;SDS011;62687;55.738;37.516;2022-11-23T01:28:33;5.30;;;2.50;;
74291;SDS011;62687;55.738;37.516;2022-11-23T01:31:19;6.38;;;2.65;;
74291;SDS011;62687;55.738;37.516;2022-11-23T01:34:06;7.22;;;2.60;;
74291;SDS011;62687;55.738;37.516;2022-11-23T01:36:50;5.22;;;2.15;;
74291;SDS011;62687;55.738;37.516;2022-11-23T01:39:34;4.85;;;2.22;;
74291;SDS011;62687;55.738;37.516;2022-11-23T01:42:18;6.10;;;2.47;;
74291;SDS011;62687;55.738;37.516;2022-11-23T01:48:18;4.22;;;2.00;;
74291;SDS011;62687;55.738;37.516;2022-11-23T01:51:10;5.05;;;2.47;;
74291;SDS011;62687;55.738;37.516;2022-11-23T01:53:58;4.95;;;2.30;;
74291;SDS011;62687;55.738;37.516;2022-11-23T01:56:45;5.20;;;2.25;;
74291;SDS011;62687;55.738;37.516;2022-11-23T01:59:35;3.55;;;1.98;;
74291;SDS011;62687;55.738;37.516;2022-11-23T02:02:19;3.65;;;1.90;;
74291;SDS011;62687;55.738;37.516;2022-11-23T02:05:04;3.78;;;2.05;;
74291;SDS011;62687;55.738;37.516;2022-11-23T02:07:49;5.22;;;2.28;;
74291;SDS011;62687;55.738;37.516;2022-11-23T02:10:33;5.15;;;2.05;;
74291;SDS011;62687;55.738;37.516;2022-11-23T02:13:18;5.25;;;2.40;;
74291;SDS011;62687;55.738;37.516;2022-11-23T02:16:03;4.38;;;2.05;;
74291;SDS011;62687;55.738;37.516;2022-11-23T02:18:47;4.68;;;2.28;;
74291;SDS011;62687;55.738;37.516;2022-11-23T02:21:33;3.03;;;1.77;;
74291;SDS011;62687;55.738;37.516;2022-11-23T02:24:19;4.57;;;1.98;;
74291;SDS011;62687;55.738;37.516;2022-11-23T02:27:10;5.40;;;1.85;;
74291;SDS011;62687;55.738;37.516;2022-11-23T02:29:56;5.68;;;1.98;;
74291;SDS011;62687;55.738;37.516;2022-11-23T02:32:41;5.45;;;1.98;;
74291;SDS011;62687;55.738;37.516;2022-11-23T02:35:26;5.82;;;2.00;;
74291;SDS011;62687;55.738;37.516;2022-11-23T02:38:11;5.88;;;2.22;;
74291;SDS011;62687;55.738;37.516;2022-11-23T02:40:55;3.55;;;1.85;;
74291;SDS011;62687;55.738;37.516;2022-11-23T02:43:39;4.88;;;1.92;;
74291;SDS011;62687;55.738;37.516;2022-11-23T02:46:23;4.28;;;1.92;;
74291;SDS011;62687;55.738;37.516;2022-11-23T02:49:07;3.83;;;1.85;;
74291;SDS011;62687;55.738;37.516;2022-11-23T02:51:51;4.55;;;2.17;;
74291;SDS011;62687;55.738;37.516;2022-11-23T02:54:36;10.43;;;2.33;;
74291;SDS011;62687;55.738;37.516;2022-11-23T02:57:19;6.03;;;1.88;;
74291;SDS011;62687;55.738;37.516;2022-11-23T03:00:04;5.30;;;1.83;;
74291;SDS011;62687;55.738;37.516;2022-11-23T03:02:49;4.53;;;1.80;;
74291;SDS011;62687;55.738;37.516;2022-11-23T03:05:33;3.78;;;1.50;;
74291;SDS011;62687;55.738;37.516;2022-11-23T03:08:17;7.32;;;2.03;;
74291;SDS011;62687;55.738;37.516;2022-11-23T03:11:01;2.90;;;1.45;;
74291;SDS011;62687;55.738;37.516;2022-11-23T03:13:45;4.82;;;1.40;;
74291;SDS011;62687;55.738;37.516;2022-11-23T03:16:29;15.25;;;2.15;;
74291;SDS011;62687;55.738;37.516;2022-11-23T03:19:13;5.32;;;1.70;;
74291;SDS011;62687;55.738;37.516;2022-11-23T03:21:57;6.65;;;1.85;;
74291;SDS011;62687;55.738;37.516;2022-11-23T03:24:41;5.13;;;1.90;;
74291;SDS011;62687;55.738;37.516;2022-11-23T03:27:25;4.68;;;1.67;;
74291;SDS011;62687;55.738;37.516;2022-11-23T03:30:09;6.38;;;1.95;;
74291;SDS011;62687;55.738;37.516;2022-11-23T03:32:53;5.25;;;1.50;;
74291;SDS011;62687;55.738;37.516;2022-11-23T03:35:38;5.82;;;1.55;;
74291;SDS011;62687;55.738;37.516;2022-11-23T03:38:22;3.42;;;1.63;;
74291;SDS011;62687;55.738;37.516;2022-11-23T03:41:03;3.40;;;1.23;;
74291;SDS011;62687;55.738;37.516;2022-11-23T03:43:47;4.50;;;1.80;;
74291;SDS011;62687;55.738;37.516;2022-11-23T03:46:31;5.60;;;1.75;;
74291;SDS011;62687;55.738;37.516;2022-11-23T03:49:15;2.35;;;1.20;;
74291;SDS011;62687;55.738;37.516;2022-11-23T03:51:59;2.88;;;1.17;;
74291;SDS011;62687;55.738;37.516;2022-11-23T03:54:43;5.80;;;1.40;;
74291;SDS011;62687;55.738;37.516;2022-11-23T03:57:27;6.18;;;1.30;;
74291;SDS011;62687;55.738;37.516;2022-11-23T04:00:11;9.13;;;2.08;;
74291;SDS011;62687;55.738;37.516;2022-11-23T04:02:56;8.70;;;1.38;;
74291;SDS011;62687;55.738;37.516;2022-11-23T04:05:40;12.73;;;3.03;;
74291;SDS011;62687;55.738;37.516;2022-11-23T04:08:24;6.22;;;1.50;;
74291;SDS011;62687;55.738;37.516;2022-11-23T04:11:09;7.80;;;1.40;;
74291;SDS011;62687;55.738;37.516;2022-11-23T04:13:53;6.38;;;1.38;;
74291;SDS011;62687;55.738;37.516;2022-11-23T04:16:37;9.65;;;1.50;;
74291;SDS011;62687;55.738;37.516;2022-11-23T04:19:21;11.20;;;1.80;;
74291;SDS011;62687;55.738;37.516;2022-11-23T04:22:05;5.82;;;1.77;;
74291;SDS011;62687;55.738;37.516;2022-11-23T04:24:49;9.90;;;1.85;;
74291;SDS011;62687;55.738;37.516;2022-11-23T04:27:33;3.78;;;1.70;;
74291;SDS011;62687;55.738;37.516;2022-11-23T04:30:17;5.00;;;2.03;;
74291;SDS011;62687;55.738;37.516;2022-11-23T04:33:01;6.10;;;2.00;;
74291;SDS011;62687;55.738;37.516;2022-11-23T04:35:45;9.40;;;1.98;;
74291;SDS011;62687;55.738;37.516;2022-11-23T04:38:29;5.63;;;2.25;;
74291;SDS011;62687;55.738;37.516;2022-11-23T04:41:13;6.45;;;2.00;;
74291;SDS011;62687;55.738;37.516;2022-11-23T04:43:58;5.47;;;2.03;;
74291;SDS011;62687;55.738;37.516;2022-11-23T04:46:42;6.20;;;2.42;;
74291;SDS011;62687;55.738;37.516;2022-11-23T04:49:25;7.00;;;2.65;;
74291;SDS011;62687;55.738;37.516;2022-11-23T04:52:09;4.93;;;2.03;;
74291;SDS011;62687;55.738;37.516;2022-11-23T04:54:54;7.15;;;2.10;;
74291;SDS011;62687;55.738;37.516;2022-11-23T04:57:38;8.32;;;2.35;;
74291;SDS011;62687;55.738;37.516;2022-11-23T05:00:22;10.85;;;2.50;;
74291;SDS011;62687;55.738;37.516;2022-11-23T05:03:07;6.55;;;2.30;;
74291;SDS011;62687;55.738;37.516;2022-11-23T05:05:52;6.32;;;2.05;;
74291;SDS011;62687;55.738;37.516;2022-11-23T05:08:36;6.10;;;2.65;;
74291;SDS011;62687;55.738;37.516;2022-11-23T05:11:20;4.85;;;1.75;;
74291;SDS011;62687;55.738;37.516;2022-11-23T05:14:04;6.90;;;2.13;;
74291;SDS011;62687;55.738;37.516;2022-11-23T05:16:48;7.95;;;2.65;;
74291;SDS011;62687;55.738;37.516;2022-11-23T05:19:32;8.38;;;2.88;;
74291;SDS011;62687;55.738;37.516;2022-11-23T05:22:16;16.70;;;3.45;;
74291;SDS011;62687;55.738;37.516;2022-11-23T05:25:00;9.98;;;2.65;;
74291;SDS011;62687;55.738;37.516;2022-11-23T05:27:44;6.57;;;2.20;;
74291;SDS011;62687;55.738;37.516;2022-11-23T05:30:28;5.85;;;2.08;;
74291;SDS011;62687;55.738;37.516;2022-11-23T05:33:12;9.27;;;2.22;;
74291;SDS011;62687;55.738;37.516;2022-11-23T05:35:56;6.38;;;1.88;;
74291;SDS011;62687;55.738;37.516;2022-11-23T05:38:40;6.32;;;2.00;;
74291;SDS011;62687;55.738;37.516;2022-11-23T05:41:25;6.15;;;2.42;;
74291;SDS011;62687;55.738;37.516;2022-11-23T05:44:09;4.68;;;2.08;;
74291;SDS011;62687;55.738;37.516;2022-11-23T05:46:53;6.40;;;2.28;;
74291;SDS011;62687;55.738;37.516;2022-11-23T05:49:37;8.48;;;2.60;;
74291;SDS011;62687;55.738;37.516;2022-11-23T05:52:23;5.85;;;2.20;;
74291;SDS011;62687;55.738;37.516;2022-11-23T05:55:08;7.15;;;2.10;;
74291;SDS011;62687;55.738;37.516;2022-11-23T05:57:52;4.63;;;2.08;;
74291;SDS011;62687;55.738;37.516;2022-11-23T06:00:36;6.07;;;2.33;;
74291;SDS011;62687;55.738;37.516;2022-11-23T06:03:21;8.52;;;2.60;;
74291;SDS011;62687;55.738;37.516;2022-11-23T06:06:05;10.48;;;2.90;;
74291;SDS011;62687;55.738;37.516;2022-11-23T06:08:49;6.55;;;2.72;;
74291;SDS011;62687;55.738;37.516;2022-11-23T06:11:33;6.60;;;2.75;;
74291;SDS011;62687;55.738;37.516;2022-11-23T06:14:18;7.28;;;2.97;;
74291;SDS011;62687;55.738;37.516;2022-11-23T06:17:01;8.20;;;2.47;;
74291;SDS011;62687;55.738;37.516;2022-11-23T06:19:45;7.32;;;2.72;;
74291;SDS011;62687;55.738;37.516;2022-11-23T06:22:29;5.78;;;2.50;;
74291;SDS011;62687;55.738;37.516;2022-11-23T06:25:13;4.90;;;2.47;;
74291;SDS011;62687;55.738;37.516;2022-11-23T06:27:58;7.45;;;2.10;;
74291;SDS011;62687;55.738;37.516;2022-11-23T06:30:43;5.13;;;2.35;;
74291;SDS011;62687;55.738;37.516;2022-11-23T06:33:27;7.32;;;3.13;;
74291;SDS011;62687;55.738;37.516;2022-11-23T06:36:12;4.85;;;2.17;;
74291;SDS011;62687;55.738;37.516;2022-11-23T06:38:56;4.68;;;2.40;;
74291;SDS011;62687;55.738;37.516;2022-11-23T06:41:40;4.75;;;1.95;;
74291;SDS011;62687;55.738;37.516;2022-11-23T06:44:24;6.20;;;1.98;;
74291;SDS011;62687;55.738;37.516;2022-11-23T06:47:08;6.07;;;2.05;;
74291;SDS011;62687;55.738;37.516;2022-11-23T06:49:53;5.70;;;2.05;;
74291;SDS011;62687;55.738;37.516;2022-11-23T06:52:37;6.25;;;1.95;;
74291;SDS011;62687;55.738;37.516;2022-11-23T06:55:21;6.85;;;2.17;;
74291;SDS011;62687;55.738;37.516;2022-11-23T06:58:06;4.70;;;1.88;;
74291;SDS011;62687;55.738;37.516;2022-11-23T07:00:49;5.90;;;1.92;;
74291;SDS011;62687;55.738;37.516;2022-11-23T07:03:34;5.15;;;2.53;;
74291;SDS011;62687;55.738;37.516;2022-11-23T07:06:18;7.15;;;2.60;;
74291;SDS011;62687;55.738;37.516;2022-11-23T07:09:02;6.72;;;3.10;;
74291;SDS011;62687;55.738;37.516;2022-11-23T07:11:46;6.25;;;2.22;;
74291;SDS011;62687;55.738;37.516;2022-11-23T07:14:31;8.05;;;2.78;;
74291;SDS011;62687;55.738;37.516;2022-11-23T07:17:14;10.73;;;4.15;;
74291;SDS011;62687;55.738;37.516;2022-11-23T07:19:58;9.20;;;3.40;;
74291;SDS011;62687;55.738;37.516;2022-11-23T07:22:42;10.50;;;3.10;;
74291;SDS011;62687;55.738;37.516;2022-11-23T07:25:30;8.20;;;3.47;;
74291;SDS011;62687;55.738;37.516;2022-11-23T07:28:15;12.77;;;3.75;;
74291;SDS011;62687;55.738;37.516;2022-11-23T07:31:00;10.20;;;3.28;;
74291;SDS011;62687;55.738;37.516;2022-11-23T07:33:44;8.82;;;3.13;;
74291;SDS011;62687;55.738;37.516;2022-11-23T07:36:29;8.95;;;3.30;;
74291;SDS011;62687;55.738;37.516;2022-11-23T07:39:13;8.25;;;3.47;;
74291;SDS011;62687;55.738;37.516;2022-11-23T07:41:57;10.95;;;3.97;;
74291;SDS011;62687;55.738;37.516;2022-11-23T07:44:41;8.82;;;2.88;;
74291;SDS011;62687;55.738;37.516;2022-11-23T07:47:25;11.85;;;3.35;;
74291;SDS011;62687;55.738;37.516;2022-11-23T07:50:10;9.73;;;3.40;;
74291;SDS011;62687;55.738;37.516;2022-11-23T07:52:55;9.27;;;3.63;;
74291;SDS011;62687;55.738;37.516;2022-11-23T07:55:40;9.63;;;3.38;;
74291;SDS011;62687;55.738;37.516;2022-11-23T07:58:24;6.07;;;3.05;;
74291;SDS011;62687;55.738;37.516;2022-11-23T08:01:08;9.93;;;3.28;;
74291;SDS011;62687;55.738;37.516;2022-11-23T08:06:38;10.55;;;3.70;;
74291;SDS011;62687;55.738;37.516;2022-11-23T08:09:22;11.88;;;3.28;;
74291;SDS011;62687;55.738;37.516;2022-11-23T08:12:06;5.97;;;2.80;;
74291;SDS011;62687;55.738;37.516;2022-11-23T08:14:50;8.50;;;3.05;;
74291;SDS011;62687;55.738;37.516;2022-11-23T08:17:34;6.13;;;2.83;;
74291;SDS011;62687;55.738;37.516;2022-11-23T08:20:18;6.30;;;2.45;;
74291;SDS011;62687;55.738;37.516;2022-11-23T08:23:02;10.32;;;2.88;;
74291;SDS011;62687;55.738;37.516;2022-11-23T08:25:46;8.45;;;2.55;;
74291;SDS011;62687;55.738;37.516;2022-11-23T08:28:30;9.45;;;3.00;;
74291;SDS011;62687;55.738;37.516;2022-11-23T08:31:14;8.65;;;3.03;;
74291;SDS011;62687;55.738;37.516;2022-11-23T08:33:58;5.93;;;2.75;;
74291;SDS011;62687;55.738;37.516;2022-11-23T08:36:43;6.03;;;2.30;;
74291;SDS011;62687;55.738;37.516;2022-11-23T08:39:27;6.22;;;2.30;;
74291;SDS011;62687;55.738;37.516;2022-11-23T08:42:11;6.65;;;2.25;;
74291;SDS011;62687;55.738;37.516;2022-11-23T08:44:55;5.00;;;2.20;;
74291;SDS011;62687;55.738;37.516;2022-11-23T08:47:42;9.93;;;2.30;;
74291;SDS011;62687;55.738;37.516;2022-11-23T08:50:26;5.82;;;2.80;;
74291;SDS011;62687;55.738;37.516;2022-11-23T08:53:15;6.00;;;2.60;;
74291;SDS011;62687;55.738;37.516;2022-11-23T08:56:00;6.15;;;2.53;;
74291;SDS011;62687;55.738;37.516;2022-11-23T08:58:45;9.43;;;2.85;;
74291;SDS011;62687;55.738;37.516;2022-11-23T09:01:29;6.32;;;2.42;;
74291;SDS011;62687;55.738;37.516;2022-11-23T09:04:13;6.38;;;2.33;;
74291;SDS011;62687;55.738;37.516;2022-11-23T09:06:57;5.40;;;2.38;;
74291;SDS011;62687;55.738;37.516;2022-11-23T09:09:41;8.27;;;2.10;;
74291;SDS011;62687;55.738;37.516;2022-11-23T09:12:25;7.65;;;2.58;;
74291;SDS011;62687;55.738;37.516;2022-11-23T09:15:09;6.57;;;1.77;;
74291;SDS011;62687;55.738;37.516;2022-11-23T09:17:53;5.47;;;1.65;;
74291;SDS011;62687;55.738;37.516;2022-11-23T09:20:38;5.20;;;1.65;;
74291;SDS011;62687;55.738;37.516;2022-11-23T09:23:23;6.28;;;1.70;;
74291;SDS011;62687;55.738;37.516;2022-11-23T09:26:09;4.05;;;1.60;;
74291;SDS011;62687;55.738;37.516;2022-11-23T09:28:53;5.70;;;2.00;;
74291;SDS011;62687;55.738;37.516;2022-11-23T09:31:37;6.68;;;1.80;;
74291;SDS011;62687;55.738;37.516;2022-11-23T09:34:21;5.07;;;1.90;;
74291;SDS011;62687;55.738;37.516;2022-11-23T09:37:05;4.30;;;1.80;;
74291;SDS011;62687;55.738;37.516;2022-11-23T09:39:49;6.72;;;1.92;;
74291;SDS011;62687;55.738;37.516;2022-11-23T09:51:36;5.88;;;1.50;;
74291;SDS011;62687;55.738;37.516;2022-11-23T09:57:13;5.30;;;1.83;;
74291;SDS011;62687;55.738;37.516;2022-11-23T10:00:06;5.22;;;1.85;;
74291;SDS011;62687;55.738;37.516;2022-11-23T10:02:58;6.28;;;1.63;;
74291;SDS011;62687;55.738;37.516;2022-11-23T10:15:30;6.78;;;1.88;;
74291;SDS011;62687;55.738;37.516;2022-11-23T10:18:29;4.20;;;2.03;;
74291;SDS011;62687;55.738;37.516;2022-11-23T10:21:38;7.95;;;2.90;;
74291;SDS011;62687;55.738;37.516;2022-11-23T10:24:43;5.13;;;2.47;;
74291;SDS011;62687;55.738;37.516;2022-11-23T10:27:32;8.43;;;2.47;;
74291;SDS011;62687;55.738;37.516;2022-11-23T10:30:17;6.15;;;2.35;;
74291;SDS011;62687;55.738;37.516;2022-11-23T10:36:10;11.93;;;2.65;;
74291;SDS011;62687;55.738;37.516;2022-11-23T10:38:57;7.97;;;2.80;;
74291;SDS011;62687;55.738;37.516;2022-11-23T10:41:43;10.38;;;2.90;;
74291;SDS011;62687;55.738;37.516;2022-11-23T10:44:33;5.32;;;2.63;;
74291;SDS011;62687;55.738;37.516;2022-11-23T10:47:34;6.80;;;2.50;;
74291;SDS011;62687;55.738;37.516;2022-11-23T10:50:26;7.82;;;2.80;;
74291;SDS011;62687;55.738;37.516;2022-11-23T10:53:18;7.00;;;2.75;;
74291;SDS011;62687;55.738;37.516;2022-11-23T10:56:05;10.55;;;3.47;;
74291;SDS011;62687;55.738;37.516;2022-11-23T11:01:40;5.95;;;2.40;;
74291;SDS011;62687;55.738;37.516;2022-11-23T11:04:41;6.20;;;2.42;;
74291;SDS011;62687;55.738;37.516;2022-11-23T11:07:28;5.30;;;2.50;;
74291;SDS011;62687;55.738;37.516;2022-11-23T11:16:45;12.27;;;3.30;;
74291;SDS011;62687;55.738;37.516;2022-11-23T11:28:21;8.65;;;3.40;;
74291;SDS011;62687;55.738;37.516;2022-11-23T11:34:52;7.15;;;2.88;;
74291;SDS011;62687;55.738;37.516;2022-11-23T11:37:46;5.38;;;2.72;;
74291;SDS011;62687;55.738;37.516;2022-11-23T11:40:33;8.20;;;2.50;;
74291;SDS011;62687;55.738;37.516;2022-11-23T11:43:29;9.20;;;2.97;;
74291;SDS011;62687;55.738;37.516;2022-11-23T11:46:21;7.80;;;2.47;;
74291;SDS011;62687;55.738;37.516;2022-11-23T11:49:24;8.65;;;2.55;;
74291;SDS011;62687;55.738;37.516;2022-11-23T11:52:31;6.82;;;2.17;;
74291;SDS011;62687;55.738;37.516;2022-11-23T11:55:21;4.68;;;2.33;;
74291;SDS011;62687;55.738;37.516;2022-11-23T11:58:10;6.97;;;2.38;;
74291;SDS011;62687;55.738;37.516;2022-11-23T12:01:11;8.15;;;2.92;;
74291;SDS011;62687;55.738;37.516;2022-11-23T12:04:16;6.65;;;2.63;;
74291;SDS011;62687;55.738;37.516;2022-11-23T12:06:57;7.72;;;3.60;;
74291;SDS011;62687;55.738;37.516;2022-11-23T12:09:47;17.70;;;2.97;;
74291;SDS011;62687;55.738;37.516;2022-11-23T12:12:35;7.03;;;2.97;;
74291;SDS011;62687;55.738;37.516;2022-11-23T12:15:21;11.05;;;3.53;;
74291;SDS011;62687;55.738;37.516;2022-11-23T12:31:20;10.07;;;3.83;;
74291;SDS011;62687;55.738;37.516;2022-11-23T12:42:54;5.68;;;3.22;;
74291;SDS011;62687;55.738;37.516;2022-11-23T12:46:02;5.05;;;2.97;;
74291;SDS011;62687;55.738;37.516;2022-11-23T12:49:01;8.25;;;3.58;;
74291;SDS011;62687;55.738;37.516;2022-11-23T12:57:53;7.30;;;3.72;;
74291;SDS011;62687;55.738;37.516;2022-11-23T13:09:38;11.43;;;3.78;;
74291;SDS011;62687;55.738;37.516;2022-11-23T13:15:41;7.55;;;3.58;;
74291;SDS011;62687;55.738;37.516;2022-11-23T13:21:59;8.27;;;3.13;;
74291;SDS011;62687;55.738;37.516;2022-11-23T13:27:57;9.20;;;3.35;;
74291;SDS011;62687;55.738;37.516;2022-11-23T13:30:47;7.53;;;3.78;;
74291;SDS011;62687;55.738;37.516;2022-11-23T13:34:06;4.18;;;2.55;;
74291;SDS011;62687;55.738;37.516;2022-11-23T13:37:29;10.52;;;2.97;;
74291;SDS011;62687;55.738;37.516;2022-11-23T13:40:19;5.43;;;3.10;;
74291;SDS011;62687;55.738;37.516;2022-11-23T13:43:20;7.05;;;3.00;;
74291;SDS011;62687;55.738;37.516;2022-11-23T13:46:20;6.63;;;2.60;;
74291;SDS011;62687;55.738;37.516;2022-11-23T13:49:27;13.57;;;3.30;;
74291;SDS011;62687;55.738;37.516;2022-11-23T14:04:43;8.48;;;2.85;;
74291;SDS011;62687;55.738;37.516;2022-11-23T14:07:31;5.88;;;2.30;;
74291;SDS011;62687;55.738;37.516;2022-11-23T14:10:28;9.25;;;3.22;;
74291;SDS011;62687;55.738;37.516;2022-11-23T14:13:16;8.18;;;3.20;;
74291;SDS011;62687;55.738;37.516;2022-11-23T14:16:08;6.97;;;2.72;;
74291;SDS011;62687;55.738;37.516;2022-11-23T14:19:04;9.68;;;4.28;;
74291;SDS011;62687;55.738;37.516;2022-11-23T14:34:28;5.90;;;2.20;;
74291;SDS011;62687;55.738;37.516;2022-11-23T14:43:29;6.20;;;2.22;;
74291;SDS011;62687;55.738;37.516;2022-11-23T14:46:19;11.30;;;3.65;;
74291;SDS011;62687;55.738;37.516;2022-11-23T14:49:11;13.30;;;2.72;;
74291;SDS011;62687;55.738;37.516;2022-11-23T14:51:58;6.72;;;2.38;;
74291;SDS011;62687;55.738;37.516;2022-11-23T14:54:45;9.38;;;2.63;;
74291;SDS011;62687;55.738;37.516;2022-11-23T14:57:37;10.65;;;5.07;;
74291;SDS011;62687;55.738;37.516;2022-11-23T15:03:12;6.75;;;2.72;;
74291;SDS011;62687;55.738;37.516;2022-11-23T15:06:03;12.07;;;4.50;;
74291;SDS011;62687;55.738;37.516;2022-11-23T15:08:56;5.53;;;2.38;;
74291;SDS011;62687;55.738;37.516;2022-11-23T15:15:23;6.22;;;2.90;;
74291;SDS011;62687;55.738;37.516;2022-11-23T15:18:27;8.18;;;3.00;;
74291;SDS011;62687;55.738;37.516;2022-11-23T15:24:04;7.03;;;3.47;;
74291;SDS011;62687;55.738;37.516;2022-11-23T15:26:48;8.13;;;4.07;;
74291;SDS011;62687;55.738;37.516;2022-11-23T15:29:34;9.15;;;5.22;;
74291;SDS011;62687;55.738;37.516;2022-11-23T15:32:21;4.82;;;3.05;;
74291;SDS011;62687;55.738;37.516;2022-11-23T15:35:11;6.88;;;3.85;;
74291;SDS011;62687;55.738;37.516;2022-11-23T15:37:57;8.90;;;3.65;;
74291;SDS011;62687;55.738;37.516;2022-11-23T15:40:44;11.60;;;5.05;;
74291;SDS011;62687;55.738;37.516;2022-11-23T15:43:30;9.15;;;3.70;;
74291;SDS011;62687;55.738;37.516;2022-11-23T15:46:14;13.77;;;7.05;;
74291;SDS011;62687;55.738;37.516;2022-11-23T15:48:58;10.90;;;4.70;;
74291;SDS011;62687;55.738;37.516;2022-11-23T15:51:45;9.05;;;4.40;;
74291;SDS011;62687;55.738;37.516;2022-11-23T15:54:34;15.25;;;5.65;;
74291;SDS011;62687;55.738;37.516;2022-11-23T15:57:20;8.27;;;3.75;;
74291;SDS011;62687;55.738;37.516;2022-11-23T16:00:17;12.02;;;6.93;;
74291;SDS011;62687;55.738;37.516;2022-11-23T16:03:27;9.23;;;3.58;;
74291;SDS011;62687;55.738;37.516;2022-11-23T16:06:14;18.33;;;8.82;;
74291;SDS011;62687;55.738;37.516;2022-11-23T16:09:00;8.45;;;4.20;;
74291;SDS011;62687;55.738;37.516;2022-11-23T16:11:44;11.15;;;4.72;;
74291;SDS011;62687;55.738;37.516;2022-11-23T16:14:28;9.60;;;4.55;;
74291;SDS011;62687;55.738;37.516;2022-11-23T16:19:47;8.45;;;4.60;;
74291;SDS011;62687;55.738;37.516;2022-11-23T16:22:33;8.27;;;4.10;;
74291;SDS011;62687;55.738;37.516;2022-11-23T16:25:28;9.07;;;4.50;;
74291;SDS011;62687;55.738;37.516;2022-11-23T16:28:16;9.63;;;3.95;;
74291;SDS011;62687;55.738;37.516;2022-11-23T16:31:22;11.02;;;4.00;;
74291;SDS011;62687;55.738;37.516;2022-11-23T16:34:18;7.95;;;4.03;;
74291;SDS011;62687;55.738;37.516;2022-11-23T16:37:03;9.50;;;4.00;;
74291;SDS011;62687;55.738;37.516;2022-11-23T16:39:47;6.60;;;3.88;;
74291;SDS011;62687;55.738;37.516;2022-11-23T16:42:32;7.07;;;3.38;;
74291;SDS011;62687;55.738;37.516;2022-11-23T16:45:16;6.13;;;3.72;;
74291;SDS011;62687;55.738;37.516;2022-11-23T16:48:00;11.73;;;4.72;;
74291;SDS011;62687;55.738;37.516;2022-11-23T16:53:32;8.10;;;4.15;;
74291;SDS011;62687;55.738;37.516;2022-11-23T16:56:21;10.75;;;4.53;;
74291;SDS011;62687;55.738;37.516;2022-11-23T16:59:11;7.18;;;4.03;;
74291;SDS011;62687;55.738;37.516;2022-11-23T17:04:43;11.35;;;4.43;;
74291;SDS011;62687;55.738;37.516;2022-11-23T17:07:28;11.45;;;5.95;;
74291;SDS011;62687;55.738;37.516;2022-11-23T17:10:12;9.07;;;5.05;;
74291;SDS011;62687;55.738;37.516;2022-11-23T17:12:57;9.77;;;4.60;;
74291;SDS011;62687;55.738;37.516;2022-11-23T17:15:41;9.48;;;4.47;;
74291;SDS011;62687;55.738;37.516;2022-11-23T17:18:25;12.85;;;4.63;;
74291;SDS011;62687;55.738;37.516;2022-11-23T17:21:10;7.55;;;3.75;;
74291;SDS011;62687;55.738;37.516;2022-11-23T17:23:55;10.00;;;4.30;;
74291;SDS011;62687;55.738;37.516;2022-11-23T17:26:39;9.38;;;4.30;;
74291;SDS011;62687;55.738;37.516;2022-11-23T17:29:26;7.63;;;4.03;;
74291;SDS011;62687;55.738;37.516;2022-11-23T17:32:11;12.60;;;4.80;;
74291;SDS011;62687;55.738;37.516;2022-11-23T17:34:56;10.25;;;5.00;;
74291;SDS011;62687;55.738;37.516;2022-11-23T17:37:42;11.38;;;4.70;;
74291;SDS011;62687;55.738;37.516;2022-11-23T17:40:26;11.57;;;5.05;;
74291;SDS011;62687;55.738;37.516;2022-11-23T17:43:12;10.32;;;5.03;;
74291;SDS011;62687;55.738;37.516;2022-11-23T17:45:57;13.98;;;5.43;;
74291;SDS011;62687;55.738;37.516;2022-11-23T17:48:41;15.02;;;5.45;;
74291;SDS011;62687;55.738;37.516;2022-11-23T17:51:25;9.93;;;5.45;;
74291;SDS011;62687;55.738;37.516;2022-11-23T17:56:55;10.68;;;5.32;;
74291;SDS011;62687;55.738;37.516;2022-11-23T18:02:25;8.48;;;4.00;;
74291;SDS011;62687;55.738;37.516;2022-11-23T18:05:09;10.90;;;4.88;;
74291;SDS011;62687;55.738;37.516;2022-11-23T18:07:54;11.88;;;5.43;;
74291;SDS011;62687;55.738;37.516;2022-11-23T18:10:38;11.00;;;5.53;;
74291;SDS011;62687;55.738;37.516;2022-11-23T18:13:22;15.43;;;5.28;;
74291;SDS011;62687;55.738;37.516;2022-11-23T18:16:06;8.73;;;3.97;;
74291;SDS011;62687;55.738;37.516;2022-11-23T18:18:51;10.70;;;4.90;;
74291;SDS011;62687;55.738;37.516;2022-11-23T18:21:35;18.98;;;5.47;;
74291;SDS011;62687;55.738;37.516;2022-11-23T18:24:20;10.45;;;4.82;;
74291;SDS011;62687;55.738;37.516;2022-11-23T18:27:04;13.07;;;4.90;;
74291;SDS011;62687;55.738;37.516;2022-11-23T18:29:48;11.50;;;4.75;;
74291;SDS011;62687;55.738;37.516;2022-11-23T18:32:32;10.75;;;5.25;;
74291;SDS011;62687;55.738;37.516;2022-11-23T18:35:16;10.27;;;5.18;;
74291;SDS011;62687;55.738;37.516;2022-11-23T18:38:01;13.02;;;5.28;;
74291;SDS011;62687;55.738;37.516;2022-11-23T18:40:45;11.15;;;5.25;;
74291;SDS011;62687;55.738;37.516;2022-11-23T18:43:29;16.70;;;5.93;;
74291;SDS011;62687;55.738;37.516;2022-11-23T18:46:14;9.63;;;4.93;;
74291;SDS011;62687;55.738;37.516;2022-11-23T18:49:02;13.55;;;5.78;;
74291;SDS011;62687;55.738;37.516;2022-11-23T18:51:45;13.07;;;4.82;;
74291;SDS011;62687;55.738;37.516;2022-11-23T18:54:29;10.38;;;5.03;;
74291;SDS011;62687;55.738;37.516;2022-11-23T18:57:13;11.55;;;4.82;;